No data was retrieved for https://query.yahooapis.com/v1/public/yql?q=select+%2A+from+weather.forecast+where+woeid%3D733366&format=xml&u=c

´╗┐Welkom op de vernieuwde website van Weerstation Siebengewald - het weer in het grensgebied achter de Maasduinen
Welcome to the new website of Weather Station Siebengewald - weather conditions at the border behind the "Maasduinen" (Eastern border of The Netherlands)
´╗┐


Weerstation Siebengewald 

Select another period ( hide this area )

eenheden periode Custom range Directly to
metrisch engels beide
dagelijkse wekelijkse maandelijkse jaarlijkse
use both date-selectors for a custom range
vorige dag
With this date

WeatherUnderground graphs for this period ( click here )


dagelijkse samenvatting zondag 20 oktober 2019
tijd Temp. ( °C ) Dew pt. ( °C ) wind ( km/h ) van windvlaag ( km/h ) luchtdruk ( hPa ) Humid.( % ) Rainrate ( cm ) zon ( W/m2 )
hoog10,1 8,2 8,7 zzw ( 75/124 ) 8,0 1007,3 88 - 0
gemiddeld9,9 8,0 4,1 zzw #18/30 5,7 1007,1 88 - NAN #0/30
laag9,6 7,4 -   3,2 1006,7 86 -  
dagelijkse Tabular details for zondag 20 oktober 2019
tijd Temp. ( °C ) Dew pt. ( °C ) wind ( km/h ) van windvlaag ( km/h ) luchtdruk ( hPa ) Humid.( % ) Rainrate ( cm ) zon ( W/m2 )
00:00 9,6 7,4 5,0 zzw 6,4 1006,7 86 - -
00:05 9,6 7,4 5,0 zzw 6,4 1006,7 86 - -
00:10 9,6 7,5 6,9 zuiden 8,0 1006,7 87 - -
00:15 9,7 7,6 8,7 zzw 8,0 1007,0 87 - -
00:20 9,7 7,6 8,7 zuiden 8,0 1007,0 87 - -
00:25 9,7 7,6 5,0 zzw 8,0 1007,0 87 - -
00:30 9,8 7,7 5,0 zzw 6,4 1007,0 87 - -
00:35 9,8 7,9 3,2 zzw 3,2 1007,0 88 - -
00:40 9,8 7,9 5,0 zuiden 6,4 1007,0 88 - -
00:45 9,9 8,0 6,9 zuiden 8,0 1007,0 88 - -
00:50 10,0 8,1 5,0 zuiden 8,0 1007,3 88 - -
00:55 10,0 8,1 5,0 zuiden 6,4 1007,3 88 - -
01:00 10,0 8,1 5,0 zuiden 6,4 1007,3 88 - -
01:05 10,0 8,1 3,2 zzo 4,8 1007,3 88 - -
01:10 10,0 8,1 5,0 zzw 6,4 1007,0 88 - -
01:15 10,0 8,1 1,8 zzw 4,8 1007,3 88 - -
01:20 10,0 8,1 6,9 zzw 6,4 1007,0 88 - -
01:25 10,0 8,1 5,0 zzw 6,4 1007,0 88 - -
01:30 10,0 8,1 3,2 zuiden 4,8 1007,0 88 - -
01:35 10,0 8,1 3,2 zzw 4,8 1007,0 88 - -
01:40 10,1 8,2 3,2 zzw 6,4 1007,3 88 - -
01:45 10,1 8,2 3,2 zzw 4,8 1007,3 88 - -
01:50 10,1 8,2 3,2 zzw 4,8 1007,3 88 - -
01:55 10,1 8,2   kalm 4,8 1007,3 88 - -
02:00 10,1 8,2   kalm 3,2 1007,3 88 - -
02:05 10,1 8,2 5,0 zzw 4,8 1007,0 88 - -
02:10 10,1 8,2 1,8 zzw 4,8 1007,0 88 - -
02:15 10,1 8,2 3,2 zzw 3,2 1007,3 88 - -
02:20 10,1 8,2   kalm 3,2 1007,0 88 - -
02:25 10,1 8,2 1,8 zzw 3,2 1007,0 88 - -
dagelijkse samenvatting zondag 20 oktober 2019
tijd Temp. ( °C ) Dew pt. ( °C ) wind ( km/h ) van windvlaag ( km/h ) luchtdruk ( hPa ) Humid.( % ) Rainrate ( cm ) zon ( W/m2 )
hoog10,1 8,2 8,7 zzw ( 75/124 ) 8,0 1007,3 88 - 0
gemiddeld9,9 8,0 4,1 zzw #18/30 5,7 1007,1 88 - NAN #0/30
laag9,6 7,4 -   3,2 1006,7 86 -  
dagelijkse Tabular details for zondag 20 oktober 2019
tijd Temp. ( °C ) Dew pt. ( °C ) wind ( km/h ) van windvlaag ( km/h ) luchtdruk ( hPa ) Humid.( % ) Rainrate ( cm ) zon ( W/m2 )
00:00 9,6 7,4 5,0 zzw 6,4 1006,7 86 - -
00:05 9,6 7,4 5,0 zzw 6,4 1006,7 86 - -
00:10 9,6 7,5 6,9 zuiden 8,0 1006,7 87 - -
00:15 9,7 7,6 8,7 zzw 8,0 1007,0 87 - -
00:20 9,7 7,6 8,7 zuiden 8,0 1007,0 87 - -
00:25 9,7 7,6 5,0 zzw 8,0 1007,0 87 - -
00:30 9,8 7,7 5,0 zzw 6,4 1007,0 87 - -
00:35 9,8 7,9 3,2 zzw 3,2 1007,0 88 - -
00:40 9,8 7,9 5,0 zuiden 6,4 1007,0 88 - -
00:45 9,9 8,0 6,9 zuiden 8,0 1007,0 88 - -
00:50 10,0 8,1 5,0 zuiden 8,0 1007,3 88 - -
00:55 10,0 8,1 5,0 zuiden 6,4 1007,3 88 - -
01:00 10,0 8,1 5,0 zuiden 6,4 1007,3 88 - -
01:05 10,0 8,1 3,2 zzo 4,8 1007,3 88 - -
01:10 10,0 8,1 5,0 zzw 6,4 1007,0 88 - -
01:15 10,0 8,1 1,8 zzw 4,8 1007,3 88 - -
01:20 10,0 8,1 6,9 zzw 6,4 1007,0 88 - -
01:25 10,0 8,1 5,0 zzw 6,4 1007,0 88 - -
01:30 10,0 8,1 3,2 zuiden 4,8 1007,0 88 - -
01:35 10,0 8,1 3,2 zzw 4,8 1007,0 88 - -
01:40 10,1 8,2 3,2 zzw 6,4 1007,3 88 - -
01:45 10,1 8,2 3,2 zzw 4,8 1007,3 88 - -
01:50 10,1 8,2 3,2 zzw 4,8 1007,3 88 - -
01:55 10,1 8,2   kalm 4,8 1007,3 88 - -
02:00 10,1 8,2   kalm 3,2 1007,3 88 - -
02:05 10,1 8,2 5,0 zzw 4,8 1007,0 88 - -
02:10 10,1 8,2 1,8 zzw 4,8 1007,0 88 - -
02:15 10,1 8,2 3,2 zzw 3,2 1007,3 88 - -
02:20 10,1 8,2   kalm 3,2 1007,0 88 - -
02:25 10,1 8,2 1,8 zzw 3,2 1007,0 88 - -

Download your copy of this data-set  here

Our weather-data as stored at Weather Underground. script ontwikkeld door Jim McMurry. aangepast voor de template door Leuven-Template.eu